Hopewell Township, New Jersey
Current Conditions -  °F | °C
As of 8:53 AM on Thursday 23 Oct 2014 (Local Time) from KTTN Reporting Station
Light Rain Light Rain  
Wind Chill: 50°   Ceiling: 1900
Heat Index: 50°   Visibility: 8mi
Dew Point: 46°   Wind: 9mph
Humidity: 86%   Direction: 330°NNW
Pressure: 29.75"   Gusts: 18mph
Location:  40.3975°N, 74.7746°W
Report Text: KTTN 231253Z 33008G16KT 8SM -RA BKN019 BKN029 OVC035 10/08 A2975 RMK AO2 RAB1159E29B41 SLP067 P0001 T01000078
Loading
Personal Weather Stations






























Interactive Weather Map New forecast layout! Learn more

10-Day Weather Forecast

Advertisements
Track Severe Weather on mobile